sensor_id;sensor_type;location;lat;lon;timestamp;temperature;humidity
11989;DHT22;6054;50.966;7.094;2023-06-22T00:00:51;32.10;39.60
11989;DHT22;6054;50.966;7.094;2023-06-22T00:03:18;32.10;39.60
11989;DHT22;6054;50.966;7.094;2023-06-22T00:05:45;32.10;40.50
11989;DHT22;6054;50.966;7.094;2023-06-22T00:08:12;32.30;40.00
11989;DHT22;6054;50.966;7.094;2023-06-22T00:10:39;32.10;39.90
11989;DHT22;6054;50.966;7.094;2023-06-22T00:13:07;32.10;40.20
11989;DHT22;6054;50.966;7.094;2023-06-22T00:15:35;32.10;40.40
11989;DHT22;6054;50.966;7.094;2023-06-22T00:18:04;32.20;40.50
11989;DHT22;6054;50.966;7.094;2023-06-22T00:20:31;32.10;40.50
11989;DHT22;6054;50.966;7.094;2023-06-22T00:23:02;32.10;40.00
11989;DHT22;6054;50.966;7.094;2023-06-22T00:25:31;32.10;40.80
11989;DHT22;6054;50.966;7.094;2023-06-22T00:27:58;32.10;41.50
11989;DHT22;6054;50.966;7.094;2023-06-22T00:30:25;32.00;40.30
11989;DHT22;6054;50.966;7.094;2023-06-22T00:32:52;32.00;40.10
11989;DHT22;6054;50.966;7.094;2023-06-22T00:35:20;32.10;40.60
11989;DHT22;6054;50.966;7.094;2023-06-22T00:37:47;32.00;41.20
11989;DHT22;6054;50.966;7.094;2023-06-22T00:40:14;32.00;41.80
11989;DHT22;6054;50.966;7.094;2023-06-22T00:42:43;32.00;42.30
11989;DHT22;6054;50.966;7.094;2023-06-22T00:45:09;32.10;42.00
11989;DHT22;6054;50.966;7.094;2023-06-22T00:47:37;31.90;41.40
11989;DHT22;6054;50.966;7.094;2023-06-22T00:50:07;31.90;41.10
11989;DHT22;6054;50.966;7.094;2023-06-22T00:52:36;31.90;41.00
11989;DHT22;6054;50.966;7.094;2023-06-22T00:55:09;31.80;40.20
11989;DHT22;6054;50.966;7.094;2023-06-22T00:57:36;31.80;40.00
11989;DHT22;6054;50.966;7.094;2023-06-22T01:00:04;32.00;40.80
11989;DHT22;6054;50.966;7.094;2023-06-22T01:02:34;31.80;41.50
11989;DHT22;6054;50.966;7.094;2023-06-22T01:05:02;31.80;41.60
11989;DHT22;6054;50.966;7.094;2023-06-22T01:07:39;31.80;41.20
11989;DHT22;6054;50.966;7.094;2023-06-22T01:10:14;31.80;40.80
11989;DHT22;6054;50.966;7.094;2023-06-22T01:12:45;31.80;40.80
11989;DHT22;6054;50.966;7.094;2023-06-22T01:15:20;31.90;40.80
11989;DHT22;6054;50.966;7.094;2023-06-22T01:17:48;31.90;40.90
11989;DHT22;6054;50.966;7.094;2023-06-22T01:20:16;31.80;40.60
11989;DHT22;6054;50.966;7.094;2023-06-22T01:22:59;31.90;40.00
11989;DHT22;6054;50.966;7.094;2023-06-22T01:25:33;31.70;40.30
11989;DHT22;6054;50.966;7.094;2023-06-22T01:28:08;31.70;40.40
11989;DHT22;6054;50.966;7.094;2023-06-22T01:30:42;31.80;40.50
11989;DHT22;6054;50.966;7.094;2023-06-22T01:33:10;31.70;40.40
11989;DHT22;6054;50.966;7.094;2023-06-22T01:35:39;31.80;40.50
11989;DHT22;6054;50.966;7.094;2023-06-22T01:38:07;31.70;40.30
11989;DHT22;6054;50.966;7.094;2023-06-22T01:40:36;31.70;40.30
11989;DHT22;6054;50.966;7.094;2023-06-22T01:43:04;31.60;40.20
11989;DHT22;6054;50.966;7.094;2023-06-22T01:45:31;31.80;40.40
11989;DHT22;6054;50.966;7.094;2023-06-22T01:48:00;31.60;39.50
11989;DHT22;6054;50.966;7.094;2023-06-22T01:50:27;31.60;39.90
11989;DHT22;6054;50.966;7.094;2023-06-22T01:52:55;31.60;40.00
11989;DHT22;6054;50.966;7.094;2023-06-22T01:55:22;31.60;39.50
11989;DHT22;6054;50.966;7.094;2023-06-22T01:57:48;31.60;39.40
11989;DHT22;6054;50.966;7.094;2023-06-22T02:00:19;31.50;38.80
11989;DHT22;6054;50.966;7.094;2023-06-22T02:02:53;31.60;39.20
11989;DHT22;6054;50.966;7.094;2023-06-22T02:05:24;31.80;40.20
11989;DHT22;6054;50.966;7.094;2023-06-22T02:08:09;31.70;40.30
11989;DHT22;6054;50.966;7.094;2023-06-22T02:10:38;31.50;40.40
11989;DHT22;6054;50.966;7.094;2023-06-22T02:13:07;31.60;40.40
11989;DHT22;6054;50.966;7.094;2023-06-22T02:15:34;31.50;40.50
11989;DHT22;6054;50.966;7.094;2023-06-22T02:18:01;31.50;40.00
11989;DHT22;6054;50.966;7.094;2023-06-22T02:20:30;31.50;39.60
11989;DHT22;6054;50.966;7.094;2023-06-22T02:22:57;31.50;39.40
11989;DHT22;6054;50.966;7.094;2023-06-22T02:25:24;31.70;40.90
11989;DHT22;6054;50.966;7.094;2023-06-22T02:27:51;31.40;40.20
11989;DHT22;6054;50.966;7.094;2023-06-22T02:30:18;31.50;39.30
11989;DHT22;6054;50.966;7.094;2023-06-22T02:32:45;31.50;39.70
11989;DHT22;6054;50.966;7.094;2023-06-22T02:35:11;31.50;40.40
11989;DHT22;6054;50.966;7.094;2023-06-22T02:37:41;31.50;40.50
11989;DHT22;6054;50.966;7.094;2023-06-22T02:40:08;31.60;41.50
11989;DHT22;6054;50.966;7.094;2023-06-22T02:42:36;31.40;41.70
11989;DHT22;6054;50.966;7.094;2023-06-22T02:45:03;31.40;41.60
11989;DHT22;6054;50.966;7.094;2023-06-22T02:47:30;31.40;41.80
11989;DHT22;6054;50.966;7.094;2023-06-22T02:49:57;31.60;41.20
11989;DHT22;6054;50.966;7.094;2023-06-22T02:52:24;31.40;40.00
11989;DHT22;6054;50.966;7.094;2023-06-22T02:54:52;31.30;41.10
11989;DHT22;6054;50.966;7.094;2023-06-22T02:57:19;31.40;40.90
11989;DHT22;6054;50.966;7.094;2023-06-22T02:59:45;31.50;41.40
11989;DHT22;6054;50.966;7.094;2023-06-22T03:02:12;31.30;41.30
11989;DHT22;6054;50.966;7.094;2023-06-22T03:04:39;31.30;41.40
11989;DHT22;6054;50.966;7.094;2023-06-22T03:07:06;31.20;41.90
11989;DHT22;6054;50.966;7.094;2023-06-22T03:09:33;31.20;41.90
11989;DHT22;6054;50.966;7.094;2023-06-22T03:12:01;31.10;41.60
11989;DHT22;6054;50.966;7.094;2023-06-22T03:14:28;31.10;42.00
11989;DHT22;6054;50.966;7.094;2023-06-22T03:16:55;31.10;42.50
11989;DHT22;6054;50.966;7.094;2023-06-22T03:19:28;31.00;42.70
11989;DHT22;6054;50.966;7.094;2023-06-22T03:21:56;31.20;43.00
11989;DHT22;6054;50.966;7.094;2023-06-22T03:24:23;31.20;42.80
11989;DHT22;6054;50.966;7.094;2023-06-22T03:26:50;30.90;42.70
11989;DHT22;6054;50.966;7.094;2023-06-22T03:29:18;30.90;42.90
11989;DHT22;6054;50.966;7.094;2023-06-22T03:31:44;31.10;43.40
11989;DHT22;6054;50.966;7.094;2023-06-22T03:34:11;31.00;43.40
11989;DHT22;6054;50.966;7.094;2023-06-22T03:36:38;30.90;43.60
11989;DHT22;6054;50.966;7.094;2023-06-22T03:39:05;30.80;43.40
11989;DHT22;6054;50.966;7.094;2023-06-22T03:41:31;30.70;43.60
11989;DHT22;6054;50.966;7.094;2023-06-22T03:43:58;30.80;43.90
11989;DHT22;6054;50.966;7.094;2023-06-22T03:46:26;30.70;44.20
11989;DHT22;6054;50.966;7.094;2023-06-22T03:48:53;30.90;44.30
11989;DHT22;6054;50.966;7.094;2023-06-22T03:51:20;30.70;44.30
11989;DHT22;6054;50.966;7.094;2023-06-22T03:53:46;30.60;44.60
11989;DHT22;6054;50.966;7.094;2023-06-22T03:56:13;30.60;44.60
11989;DHT22;6054;50.966;7.094;2023-06-22T03:58:45;30.60;44.70
11989;DHT22;6054;50.966;7.094;2023-06-22T04:01:12;30.60;44.50
11989;DHT22;6054;50.966;7.094;2023-06-22T04:03:41;30.60;44.40
11989;DHT22;6054;50.966;7.094;2023-06-22T04:06:08;30.60;44.60
11989;DHT22;6054;50.966;7.094;2023-06-22T04:08:35;30.80;45.60
11989;DHT22;6054;50.966;7.094;2023-06-22T04:11:02;30.70;45.30
11989;DHT22;6054;50.966;7.094;2023-06-22T04:13:29;30.60;45.50
11989;DHT22;6054;50.966;7.094;2023-06-22T04:15:55;30.80;45.20
11989;DHT22;6054;50.966;7.094;2023-06-22T04:18:22;30.60;45.20
11989;DHT22;6054;50.966;7.094;2023-06-22T04:20:50;30.60;45.10
11989;DHT22;6054;50.966;7.094;2023-06-22T04:23:17;30.60;45.20
11989;DHT22;6054;50.966;7.094;2023-06-22T04:25:44;30.70;45.50
11989;DHT22;6054;50.966;7.094;2023-06-22T04:28:10;30.80;45.70
11989;DHT22;6054;50.966;7.094;2023-06-22T04:30:38;30.70;45.70
11989;DHT22;6054;50.966;7.094;2023-06-22T04:33:12;30.80;46.10
11989;DHT22;6054;50.966;7.094;2023-06-22T04:35:39;30.60;45.80
11989;DHT22;6054;50.966;7.094;2023-06-22T04:38:08;30.90;46.00
11989;DHT22;6054;50.966;7.094;2023-06-22T04:40:35;30.80;46.00
11989;DHT22;6054;50.966;7.094;2023-06-22T04:43:02;30.60;45.60
11989;DHT22;6054;50.966;7.094;2023-06-22T04:45:31;30.90;46.10
11989;DHT22;6054;50.966;7.094;2023-06-22T04:47:58;30.60;46.50
11989;DHT22;6054;50.966;7.094;2023-06-22T04:50:25;30.60;46.20
11989;DHT22;6054;50.966;7.094;2023-06-22T04:52:52;30.70;46.30
11989;DHT22;6054;50.966;7.094;2023-06-22T04:55:20;30.80;46.50
11989;DHT22;6054;50.966;7.094;2023-06-22T04:57:48;30.60;46.60
11989;DHT22;6054;50.966;7.094;2023-06-22T05:00:15;30.60;47.10
11989;DHT22;6054;50.966;7.094;2023-06-22T05:02:44;30.60;47.20
11989;DHT22;6054;50.966;7.094;2023-06-22T05:05:11;30.50;47.30
11989;DHT22;6054;50.966;7.094;2023-06-22T05:07:41;30.50;47.50
11989;DHT22;6054;50.966;7.094;2023-06-22T05:10:09;30.50;47.80
11989;DHT22;6054;50.966;7.094;2023-06-22T05:12:38;30.60;47.90
11989;DHT22;6054;50.966;7.094;2023-06-22T05:15:07;30.60;47.90
11989;DHT22;6054;50.966;7.094;2023-06-22T05:17:34;30.60;47.90
11989;DHT22;6054;50.966;7.094;2023-06-22T05:20:01;30.50;47.80
11989;DHT22;6054;50.966;7.094;2023-06-22T05:22:28;30.50;48.20
11989;DHT22;6054;50.966;7.094;2023-06-22T05:24:54;30.50;48.20
11989;DHT22;6054;50.966;7.094;2023-06-22T05:27:21;30.50;48.20
11989;DHT22;6054;50.966;7.094;2023-06-22T05:29:49;30.70;48.20
11989;DHT22;6054;50.966;7.094;2023-06-22T05:32:16;30.70;48.00
11989;DHT22;6054;50.966;7.094;2023-06-22T05:34:44;30.50;48.00
11989;DHT22;6054;50.966;7.094;2023-06-22T05:37:10;30.50;48.10
11989;DHT22;6054;50.966;7.094;2023-06-22T05:39:38;30.60;48.40
11989;DHT22;6054;50.966;7.094;2023-06-22T05:42:05;30.70;48.70
11989;DHT22;6054;50.966;7.094;2023-06-22T05:44:32;30.60;48.80
11989;DHT22;6054;50.966;7.094;2023-06-22T05:47:00;30.80;48.90
11989;DHT22;6054;50.966;7.094;2023-06-22T05:49:28;30.60;48.70
11989;DHT22;6054;50.966;7.094;2023-06-22T05:51:58;30.70;48.70
11989;DHT22;6054;50.966;7.094;2023-06-22T05:54:24;30.80;48.90
11989;DHT22;6054;50.966;7.094;2023-06-22T05:56:51;30.90;48.90
11989;DHT22;6054;50.966;7.094;2023-06-22T05:59:18;30.70;48.50
11989;DHT22;6054;50.966;7.094;2023-06-22T06:01:45;30.80;48.50
11989;DHT22;6054;50.966;7.094;2023-06-22T06:04:16;30.80;48.40
11989;DHT22;6054;50.966;7.094;2023-06-22T06:06:43;30.80;48.40
11989;DHT22;6054;50.966;7.094;2023-06-22T06:09:10;30.80;48.40
11989;DHT22;6054;50.966;7.094;2023-06-22T06:11:37;30.90;48.20
11989;DHT22;6054;50.966;7.094;2023-06-22T06:14:04;31.00;48.00
11989;DHT22;6054;50.966;7.094;2023-06-22T06:16:31;31.00;47.60
11989;DHT22;6054;50.966;7.094;2023-06-22T06:18:58;31.10;47.00
11989;DHT22;6054;50.966;7.094;2023-06-22T06:21:26;31.40;47.20
11989;DHT22;6054;50.966;7.094;2023-06-22T06:23:53;31.30;46.60
11989;DHT22;6054;50.966;7.094;2023-06-22T06:26:20;31.30;46.50
11989;DHT22;6054;50.966;7.094;2023-06-22T06:28:53;31.60;46.60
11989;DHT22;6054;50.966;7.094;2023-06-22T06:31:20;31.60;46.40
11989;DHT22;6054;50.966;7.094;2023-06-22T06:33:46;31.50;46.30
11989;DHT22;6054;50.966;7.094;2023-06-22T06:36:13;31.50;46.30
11989;DHT22;6054;50.966;7.094;2023-06-22T06:38:42;31.60;46.40
11989;DHT22;6054;50.966;7.094;2023-06-22T06:41:09;31.60;46.30
11989;DHT22;6054;50.966;7.094;2023-06-22T06:43:35;31.70;46.10
11989;DHT22;6054;50.966;7.094;2023-06-22T06:46:02;31.90;46.00
11989;DHT22;6054;50.966;7.094;2023-06-22T06:48:29;31.80;46.10
11989;DHT22;6054;50.966;7.094;2023-06-22T06:50:56;31.90;46.10
11989;DHT22;6054;50.966;7.094;2023-06-22T06:53:22;31.90;45.90
11989;DHT22;6054;50.966;7.094;2023-06-22T06:55:50;31.80;45.50
11989;DHT22;6054;50.966;7.094;2023-06-22T06:58:17;31.80;45.40
11989;DHT22;6054;50.966;7.094;2023-06-22T07:00:44;31.90;45.60
11989;DHT22;6054;50.966;7.094;2023-06-22T07:03:11;32.10;45.80
11989;DHT22;6054;50.966;7.094;2023-06-22T07:05:38;31.80;45.70
11989;DHT22;6054;50.966;7.094;2023-06-22T07:08:05;32.00;45.90
11989;DHT22;6054;50.966;7.094;2023-06-22T07:10:32;31.90;45.70
11989;DHT22;6054;50.966;7.094;2023-06-22T07:13:00;31.90;45.50
11989;DHT22;6054;50.966;7.094;2023-06-22T07:15:27;32.00;45.30
11989;DHT22;6054;50.966;7.094;2023-06-22T07:17:54;32.00;45.70
11989;DHT22;6054;50.966;7.094;2023-06-22T07:20:20;32.10;46.10
11989;DHT22;6054;50.966;7.094;2023-06-22T07:22:47;32.30;46.00
11989;DHT22;6054;50.966;7.094;2023-06-22T07:25:14;32.40;45.70
11989;DHT22;6054;50.966;7.094;2023-06-22T07:27:46;32.50;45.60
11989;DHT22;6054;50.966;7.094;2023-06-22T07:30:15;32.40;45.60
11989;DHT22;6054;50.966;7.094;2023-06-22T07:32:42;32.50;45.20
11989;DHT22;6054;50.966;7.094;2023-06-22T07:35:09;32.60;45.20
11989;DHT22;6054;50.966;7.094;2023-06-22T07:37:36;32.60;45.00
11989;DHT22;6054;50.966;7.094;2023-06-22T07:40:03;32.80;44.70
11989;DHT22;6054;50.966;7.094;2023-06-22T07:42:32;32.80;44.90
11989;DHT22;6054;50.966;7.094;2023-06-22T07:44:59;33.00;44.80
11989;DHT22;6054;50.966;7.094;2023-06-22T07:47:28;32.90;44.50
11989;DHT22;6054;50.966;7.094;2023-06-22T07:49:55;32.90;44.10
11989;DHT22;6054;50.966;7.094;2023-06-22T07:52:23;33.00;44.40
11989;DHT22;6054;50.966;7.094;2023-06-22T07:54:50;33.00;44.40
11989;DHT22;6054;50.966;7.094;2023-06-22T07:57:17;33.00;44.20
11989;DHT22;6054;50.966;7.094;2023-06-22T07:59:44;33.00;44.20
11989;DHT22;6054;50.966;7.094;2023-06-22T08:02:11;33.20;44.20
11989;DHT22;6054;50.966;7.094;2023-06-22T08:04:39;33.00;44.10
11989;DHT22;6054;50.966;7.094;2023-06-22T08:07:07;33.10;44.00
11989;DHT22;6054;50.966;7.094;2023-06-22T08:09:34;33.20;44.40
11989;DHT22;6054;50.966;7.094;2023-06-22T08:12:01;33.30;44.10
11989;DHT22;6054;50.966;7.094;2023-06-22T08:14:29;33.50;44.10
11989;DHT22;6054;50.966;7.094;2023-06-22T08:16:56;33.50;44.20
11989;DHT22;6054;50.966;7.094;2023-06-22T08:19:22;33.50;43.60
11989;DHT22;6054;50.966;7.094;2023-06-22T08:21:51;33.80;43.60
11989;DHT22;6054;50.966;7.094;2023-06-22T08:24:17;33.80;43.40
11989;DHT22;6054;50.966;7.094;2023-06-22T08:26:44;33.80;43.10
11989;DHT22;6054;50.966;7.094;2023-06-22T08:29:11;33.90;43.00
11989;DHT22;6054;50.966;7.094;2023-06-22T08:31:37;34.00;42.90
11989;DHT22;6054;50.966;7.094;2023-06-22T08:34:04;34.10;42.90
11989;DHT22;6054;50.966;7.094;2023-06-22T08:36:31;34.40;43.00
11989;DHT22;6054;50.966;7.094;2023-06-22T08:39:01;34.50;43.40
11989;DHT22;6054;50.966;7.094;2023-06-22T08:41:28;34.40;42.40
11989;DHT22;6054;50.966;7.094;2023-06-22T08:43:55;34.50;42.60
11989;DHT22;6054;50.966;7.094;2023-06-22T08:46:23;34.60;42.30
11989;DHT22;6054;50.966;7.094;2023-06-22T08:48:55;34.70;42.10
11989;DHT22;6054;50.966;7.094;2023-06-22T08:51:22;34.80;41.80
11989;DHT22;6054;50.966;7.094;2023-06-22T08:53:49;34.90;41.40
11989;DHT22;6054;50.966;7.094;2023-06-22T08:56:17;35.10;41.20
11989;DHT22;6054;50.966;7.094;2023-06-22T08:58:44;35.00;41.10
11989;DHT22;6054;50.966;7.094;2023-06-22T09:01:11;35.10;41.10
11989;DHT22;6054;50.966;7.094;2023-06-22T09:03:37;35.10;40.90
11989;DHT22;6054;50.966;7.094;2023-06-22T09:06:04;35.10;40.80
11989;DHT22;6054;50.966;7.094;2023-06-22T09:08:31;35.10;40.70
11989;DHT22;6054;50.966;7.094;2023-06-22T09:10:58;35.10;41.30
11989;DHT22;6054;50.966;7.094;2023-06-22T09:13:27;35.10;40.90
11989;DHT22;6054;50.966;7.094;2023-06-22T09:15:55;35.20;40.90
11989;DHT22;6054;50.966;7.094;2023-06-22T09:18:22;35.20;40.10
11989;DHT22;6054;50.966;7.094;2023-06-22T09:20:48;35.20;40.30
11989;DHT22;6054;50.966;7.094;2023-06-22T09:23:15;35.20;40.10
11989;DHT22;6054;50.966;7.094;2023-06-22T09:25:42;35.20;40.30
11989;DHT22;6054;50.966;7.094;2023-06-22T09:28:09;35.20;40.20
11989;DHT22;6054;50.966;7.094;2023-06-22T09:30:37;35.20;40.00
11989;DHT22;6054;50.966;7.094;2023-06-22T09:33:04;35.20;40.20
11989;DHT22;6054;50.966;7.094;2023-06-22T09:35:31;35.20;39.40
11989;DHT22;6054;50.966;7.094;2023-06-22T09:37:58;35.50;39.60
11989;DHT22;6054;50.966;7.094;2023-06-22T09:40:25;35.20;39.30
11989;DHT22;6054;50.966;7.094;2023-06-22T09:42:51;35.20;39.70
11989;DHT22;6054;50.966;7.094;2023-06-22T09:45:18;35.40;40.50
11989;DHT22;6054;50.966;7.094;2023-06-22T09:47:46;35.30;39.80
11989;DHT22;6054;50.966;7.094;2023-06-22T09:50:13;35.40;39.50
11989;DHT22;6054;50.966;7.094;2023-06-22T09:52:41;35.40;38.60
11989;DHT22;6054;50.966;7.094;2023-06-22T09:55:10;35.40;39.40
11989;DHT22;6054;50.966;7.094;2023-06-22T09:57:37;35.40;39.50
11989;DHT22;6054;50.966;7.094;2023-06-22T10:00:05;35.60;39.30
11989;DHT22;6054;50.966;7.094;2023-06-22T10:02:37;35.50;40.30
11989;DHT22;6054;50.966;7.094;2023-06-22T10:05:06;35.50;39.60
11989;DHT22;6054;50.966;7.094;2023-06-22T10:07:33;35.40;39.30
11989;DHT22;6054;50.966;7.094;2023-06-22T10:09:59;35.50;39.40
11989;DHT22;6054;50.966;7.094;2023-06-22T10:12:27;35.50;39.50
11989;DHT22;6054;50.966;7.094;2023-06-22T10:14:54;35.60;39.60
11989;DHT22;6054;50.966;7.094;2023-06-22T10:17:21;35.60;39.70
11989;DHT22;6054;50.966;7.094;2023-06-22T10:19:51;35.50;40.30
11989;DHT22;6054;50.966;7.094;2023-06-22T10:22:19;35.50;41.00
11989;DHT22;6054;50.966;7.094;2023-06-22T10:24:46;35.50;40.90
11989;DHT22;6054;50.966;7.094;2023-06-22T10:27:13;35.50;41.10
11989;DHT22;6054;50.966;7.094;2023-06-22T10:29:40;35.50;41.20
11989;DHT22;6054;50.966;7.094;2023-06-22T10:32:08;35.50;41.40
11989;DHT22;6054;50.966;7.094;2023-06-22T10:34:35;35.40;41.40
11989;DHT22;6054;50.966;7.094;2023-06-22T10:37:02;35.40;42.60
11989;DHT22;6054;50.966;7.094;2023-06-22T10:39:30;35.40;43.70
11989;DHT22;6054;50.966;7.094;2023-06-22T10:41:57;35.30;44.20
11989;DHT22;6054;50.966;7.094;2023-06-22T10:44:23;35.20;44.80
11989;DHT22;6054;50.966;7.094;2023-06-22T10:46:50;35.10;45.70
11989;DHT22;6054;50.966;7.094;2023-06-22T10:49:17;35.00;46.00
11989;DHT22;6054;50.966;7.094;2023-06-22T10:51:43;35.10;46.70
11989;DHT22;6054;50.966;7.094;2023-06-22T10:54:10;34.80;46.70
11989;DHT22;6054;50.966;7.094;2023-06-22T10:56:40;34.70;46.80
11989;DHT22;6054;50.966;7.094;2023-06-22T10:59:07;34.80;47.10
11989;DHT22;6054;50.966;7.094;2023-06-22T11:01:35;34.50;47.30
11989;DHT22;6054;50.966;7.094;2023-06-22T11:04:02;34.40;47.00
11989;DHT22;6054;50.966;7.094;2023-06-22T11:06:29;34.30;48.40
11989;DHT22;6054;50.966;7.094;2023-06-22T11:08:56;34.40;48.40
11989;DHT22;6054;50.966;7.094;2023-06-22T11:11:25;34.10;49.10
11989;DHT22;6054;50.966;7.094;2023-06-22T11:13:53;34.00;50.40
11989;DHT22;6054;50.966;7.094;2023-06-22T11:16:20;33.90;50.40
11989;DHT22;6054;50.966;7.094;2023-06-22T11:18:55;33.80;50.20
11989;DHT22;6054;50.966;7.094;2023-06-22T11:21:21;33.80;50.90
11989;DHT22;6054;50.966;7.094;2023-06-22T11:23:48;33.50;51.30
11989;DHT22;6054;50.966;7.094;2023-06-22T11:26:15;33.40;51.90
11989;DHT22;6054;50.966;7.094;2023-06-22T11:28:42;33.20;52.60
11989;DHT22;6054;50.966;7.094;2023-06-22T11:31:10;33.20;53.60
11989;DHT22;6054;50.966;7.094;2023-06-22T11:33:37;32.70;54.10
11989;DHT22;6054;50.966;7.094;2023-06-22T11:36:05;32.50;55.20
11989;DHT22;6054;50.966;7.094;2023-06-22T11:38:31;32.30;55.00
11989;DHT22;6054;50.966;7.094;2023-06-22T11:40:59;32.20;55.30
11989;DHT22;6054;50.966;7.094;2023-06-22T11:43:26;32.10;56.40
11989;DHT22;6054;50.966;7.094;2023-06-22T11:45:53;32.00;56.30
11989;DHT22;6054;50.966;7.094;2023-06-22T11:48:22;32.00;56.50
11989;DHT22;6054;50.966;7.094;2023-06-22T11:50:49;32.00;56.80
11989;DHT22;6054;50.966;7.094;2023-06-22T11:53:16;32.00;57.30
11989;DHT22;6054;50.966;7.094;2023-06-22T11:55:43;32.10;57.70
11989;DHT22;6054;50.966;7.094;2023-06-22T11:58:11;32.00;57.60
11989;DHT22;6054;50.966;7.094;2023-06-22T12:00:38;32.20;57.90
11989;DHT22;6054;50.966;7.094;2023-06-22T12:03:05;32.00;58.00
11989;DHT22;6054;50.966;7.094;2023-06-22T12:05:33;32.10;58.20
11989;DHT22;6054;50.966;7.094;2023-06-22T12:08:00;32.10;58.50
11989;DHT22;6054;50.966;7.094;2023-06-22T12:10:27;32.10;58.90
11989;DHT22;6054;50.966;7.094;2023-06-22T12:12:55;32.10;58.80
11989;DHT22;6054;50.966;7.094;2023-06-22T12:15:23;32.30;59.00
11989;DHT22;6054;50.966;7.094;2023-06-22T12:17:50;32.30;58.90
11989;DHT22;6054;50.966;7.094;2023-06-22T12:20:17;32.20;58.10
11989;DHT22;6054;50.966;7.094;2023-06-22T12:22:45;32.20;58.20
11989;DHT22;6054;50.966;7.094;2023-06-22T12:25:13;32.30;57.80
11989;DHT22;6054;50.966;7.094;2023-06-22T12:27:39;32.30;57.50
11989;DHT22;6054;50.966;7.094;2023-06-22T12:30:08;32.30;57.20
11989;DHT22;6054;50.966;7.094;2023-06-22T12:32:35;32.20;57.60
11989;DHT22;6054;50.966;7.094;2023-06-22T12:35:02;32.20;57.10
11989;DHT22;6054;50.966;7.094;2023-06-22T12:37:29;32.20;57.30
11989;DHT22;6054;50.966;7.094;2023-06-22T12:39:58;32.20;57.60
11989;DHT22;6054;50.966;7.094;2023-06-22T12:42:25;32.20;57.50
11989;DHT22;6054;50.966;7.094;2023-06-22T12:44:53;32.20;58.20
11989;DHT22;6054;50.966;7.094;2023-06-22T12:47:20;32.30;58.10
11989;DHT22;6054;50.966;7.094;2023-06-22T12:49:47;32.50;58.10
11989;DHT22;6054;50.966;7.094;2023-06-22T12:52:13;32.40;58.10
11989;DHT22;6054;50.966;7.094;2023-06-22T12:54:40;32.40;58.30
11989;DHT22;6054;50.966;7.094;2023-06-22T12:57:08;32.50;58.20
11989;DHT22;6054;50.966;7.094;2023-06-22T12:59:35;32.80;57.90
11989;DHT22;6054;50.966;7.094;2023-06-22T13:02:03;32.50;57.50
11989;DHT22;6054;50.966;7.094;2023-06-22T13:04:29;32.60;57.30
11989;DHT22;6054;50.966;7.094;2023-06-22T13:06:56;32.60;57.40
11989;DHT22;6054;50.966;7.094;2023-06-22T13:09:23;32.60;57.10
11989;DHT22;6054;50.966;7.094;2023-06-22T13:11:50;32.90;57.50
11989;DHT22;6054;50.966;7.094;2023-06-22T13:14:19;32.70;56.90
11989;DHT22;6054;50.966;7.094;2023-06-22T13:16:46;32.80;56.10
11989;DHT22;6054;50.966;7.094;2023-06-22T13:19:16;32.80;55.50
11989;DHT22;6054;50.966;7.094;2023-06-22T13:21:43;33.10;56.30
11989;DHT22;6054;50.966;7.094;2023-06-22T13:24:09;33.00;54.60
11989;DHT22;6054;50.966;7.094;2023-06-22T13:26:36;32.80;53.50
11989;DHT22;6054;50.966;7.094;2023-06-22T13:29:03;32.80;54.40
11989;DHT22;6054;50.966;7.094;2023-06-22T13:31:32;32.80;54.80
11989;DHT22;6054;50.966;7.094;2023-06-22T13:33:58;32.80;53.90
11989;DHT22;6054;50.966;7.094;2023-06-22T13:36:27;32.90;54.70
11989;DHT22;6054;50.966;7.094;2023-06-22T13:38:56;32.80;55.20
11989;DHT22;6054;50.966;7.094;2023-06-22T13:41:23;33.00;53.80
11989;DHT22;6054;50.966;7.094;2023-06-22T13:43:49;32.80;54.00
11989;DHT22;6054;50.966;7.094;2023-06-22T13:46:16;33.00;54.00
11989;DHT22;6054;50.966;7.094;2023-06-22T13:48:44;32.90;53.60
11989;DHT22;6054;50.966;7.094;2023-06-22T13:51:11;33.00;53.60
11989;DHT22;6054;50.966;7.094;2023-06-22T13:53:38;33.00;52.90
11989;DHT22;6054;50.966;7.094;2023-06-22T13:56:05;33.00;52.60
11989;DHT22;6054;50.966;7.094;2023-06-22T13:58:32;33.10;52.70
11989;DHT22;6054;50.966;7.094;2023-06-22T14:00:59;33.10;52.30
11989;DHT22;6054;50.966;7.094;2023-06-22T14:03:26;33.10;51.90
11989;DHT22;6054;50.966;7.094;2023-06-22T14:05:54;33.20;51.60
11989;DHT22;6054;50.966;7.094;2023-06-22T14:08:22;33.30;51.90
11989;DHT22;6054;50.966;7.094;2023-06-22T14:10:49;33.30;51.70
11989;DHT22;6054;50.966;7.094;2023-06-22T14:13:16;33.40;50.90
11989;DHT22;6054;50.966;7.094;2023-06-22T14:15:42;33.40;51.40
11989;DHT22;6054;50.966;7.094;2023-06-22T14:18:09;33.50;50.90
11989;DHT22;6054;50.966;7.094;2023-06-22T14:20:36;33.60;51.20
11989;DHT22;6054;50.966;7.094;2023-06-22T14:23:04;33.50;50.30
11989;DHT22;6054;50.966;7.094;2023-06-22T14:25:31;33.50;49.80
11989;DHT22;6054;50.966;7.094;2023-06-22T14:27:57;33.50;50.40
11989;DHT22;6054;50.966;7.094;2023-06-22T14:30:24;33.50;50.30
11989;DHT22;6054;50.966;7.094;2023-06-22T14:32:51;33.70;50.00
11989;DHT22;6054;50.966;7.094;2023-06-22T14:35:18;33.40;50.20
11989;DHT22;6054;50.966;7.094;2023-06-22T14:37:46;33.40;50.30
11989;DHT22;6054;50.966;7.094;2023-06-22T14:40:15;33.40;49.80
11989;DHT22;6054;50.966;7.094;2023-06-22T14:42:42;33.40;50.10
11989;DHT22;6054;50.966;7.094;2023-06-22T14:45:09;33.40;50.20
11989;DHT22;6054;50.966;7.094;2023-06-22T14:47:36;33.40;50.60
11989;DHT22;6054;50.966;7.094;2023-06-22T14:50:03;33.40;50.10
11989;DHT22;6054;50.966;7.094;2023-06-22T14:52:30;33.40;50.70
11989;DHT22;6054;50.966;7.094;2023-06-22T14:54:57;33.30;50.70
11989;DHT22;6054;50.966;7.094;2023-06-22T14:57:25;33.50;51.00
11989;DHT22;6054;50.966;7.094;2023-06-22T14:59:52;33.50;51.20
11989;DHT22;6054;50.966;7.094;2023-06-22T15:02:19;33.20;51.50
11989;DHT22;6054;50.966;7.094;2023-06-22T15:04:46;32.80;53.60
11989;DHT22;6054;50.966;7.094;2023-06-22T15:07:13;32.70;53.90
11989;DHT22;6054;50.966;7.094;2023-06-22T15:09:39;32.40;54.90
11989;DHT22;6054;50.966;7.094;2023-06-22T15:12:08;32.20;54.80
11989;DHT22;6054;50.966;7.094;2023-06-22T15:14:38;32.10;56.20
11989;DHT22;6054;50.966;7.094;2023-06-22T15:17:06;31.90;57.30
11989;DHT22;6054;50.966;7.094;2023-06-22T15:19:34;31.70;57.10
11989;DHT22;6054;50.966;7.094;2023-06-22T15:22:01;31.60;57.80
11989;DHT22;6054;50.966;7.094;2023-06-22T15:24:28;31.50;57.90
11989;DHT22;6054;50.966;7.094;2023-06-22T15:26:55;31.40;58.40
11989;DHT22;6054;50.966;7.094;2023-06-22T15:29:21;31.30;59.10
11989;DHT22;6054;50.966;7.094;2023-06-22T15:31:50;31.30;59.60
11989;DHT22;6054;50.966;7.094;2023-06-22T15:34:17;31.10;60.80
11989;DHT22;6054;50.966;7.094;2023-06-22T15:36:44;31.10;59.40
11989;DHT22;6054;50.966;7.094;2023-06-22T15:39:11;31.10;59.80
11989;DHT22;6054;50.966;7.094;2023-06-22T15:41:39;30.80;59.80
11989;DHT22;6054;50.966;7.094;2023-06-22T15:44:07;30.80;60.40
11989;DHT22;6054;50.966;7.094;2023-06-22T15:46:34;30.90;60.50